| time (UTC) | temp C | wind direction | speed KPH | gust KPH | rain 1hr cm | rain 24hr cm | rain mn cm | humidity % | barometer mb |
| 20260502130517 | 0 | 253 | 1.6 | 6.4 | 0.00 | 0.00 | 0.00 | 79 | 1020.4 |
| 20260502123518 | -1 | 232 | 0.0 | 3.2 | 0.00 | 0.00 | 0.00 | 81 | 1019.7 |
| 20260502122518 | -2 | 255 | 0.0 | 0.0 | 0.00 | 0.00 | 0.00 | 83 | 1019.5 |
| 20260502121518 | -2 | 210 | 0.0 | 1.6 | 0.00 | 0.00 | 0.00 | 83 | 1019.6 |
| 20260502120538 | -2 | 214 | 1.6 | 6.4 | 0.00 | 0.00 | 0.00 | 83 | 1019.5 |
| 20260502115519 | -2 | 197 | 1.6 | 4.8 | 0.00 | 0.00 | 0.00 | 83 | 1019.6 |
| 20260502114518 | -1 | 201 | 1.6 | 4.8 | 0.00 | 0.00 | 0.00 | 82 | 1019.7 |
| 20260502113519 | -1 | 0.0 | 0.0 | 0.00 | 0.00 | 0.00 | 82 | 1019.8 | |
| 20260502112519 | -1 | 204 | 0.0 | 3.2 | 0.00 | 0.00 | 0.00 | 80 | 1019.9 |
| 20260502111519 | -1 | 205 | 1.6 | 3.2 | 0.00 | 0.00 | 0.00 | 80 | 1020.0 |
| 20260502110520 | 0 | 205 | 1.6 | 3.2 | 0.00 | 0.00 | 0.00 | 76 | 1020.2 |
| 20260502105519 | 0 | 203 | 0.0 | 3.2 | 0.00 | 0.00 | 0.00 | 75 | 1020.3 |
| 20260502104620 | 0 | 226 | 0.0 | 0.0 | 0.00 | 0.00 | 0.00 | 76 | 1020.2 |
| 20260502103520 | 0 | 226 | 0.0 | 1.6 | 0.00 | 0.00 | 0.00 | 76 | 1020.3 |
| 20260502102520 | 0 | 0.0 | 0.0 | 0.00 | 0.00 | 0.00 | 74 | 1020.5 | |
| 20260502101521 | 0 | 226 | 0.0 | 0.0 | 0.00 | 0.00 | 0.00 | 74 | 1020.5 |
| 20260502100520 | 0 | 0.0 | 0.0 | 0.00 | 0.00 | 0.00 | 74 | 1020.4 | |
| 20260502091521 | 1 | 0.0 | 0.0 | 0.00 | 0.00 | 0.00 | 73 | 1020.3 | |
| 20260502090519 | 1 | 0.0 | 0.0 | 0.00 | 0.00 | 0.00 | 73 | 1020.2 | |
| 20260502071518 | 2 | 209 | 0.0 | 3.2 | 0.00 | 0.00 | 0.00 | 65 | 1020.6 |
| 20260502070518 | 3 | 202 | 1.6 | 4.8 | 0.00 | 0.00 | 0.00 | 64 | 1020.6 |
| 20260502065518 | 3 | 206 | 0.0 | 3.2 | 0.00 | 0.00 | 0.00 | 63 | 1020.6 |
| 20260502064519 | 3 | 229 | 0.0 | 3.2 | 0.00 | 0.00 | 0.00 | 64 | 1020.6 |
| 20260502063519 | 3 | 192 | 0.0 | 3.2 | 0.00 | 0.00 | 0.00 | 63 | 1020.5 |
| 20260502062537 | 3 | 201 | 3.2 | 4.8 | 0.00 | 0.00 | 0.00 | 59 | 1020.5 |
| 20260502061536 | 3 | 221 | 0.0 | 4.8 | 0.00 | 0.00 | 0.00 | 61 | 1020.6 |
| 20260502060516 | 4 | 204 | 3.2 | 6.4 | 0.00 | 0.00 | 0.00 | 59 | 1020.5 |
| 20260502055519 | 4 | 0.0 | 0.0 | 0.00 | 0.00 | 0.00 | 60 | 1020.5 | |
| 20260502054520 | 5 | 213 | 1.6 | 4.8 | 0.00 | 0.00 | 0.00 | 58 | 1020.4 |
| 20260502053520 | 5 | 219 | 1.6 | 4.8 | 0.00 | 0.00 | 0.00 | 55 | 1020.4 |
| 20260502052517 | 6 | 269 | 0.0 | 4.8 | 0.00 | 0.00 | 0.00 | 51 | 1020.2 |
| 20260502051517 | 5 | 0.0 | 0.0 | 0.00 | 0.00 | 0.00 | 49 | 1020.1 | |
| 20260502050517 | 6 | 0.0 | 0.0 | 0.00 | 0.00 | 0.00 | 54 | 1020.3 | |
| 20260502045518 | 7 | 224 | 0.0 | 3.2 | 0.00 | 0.00 | 0.00 | 45 | 1019.9 |
| 20260502044518 | 7 | 180 | 0.0 | 4.8 | 0.00 | 0.00 | 0.00 | 45 | 1019.9 |
| 20260502043518 | 7 | 0.0 | 0.0 | 0.00 | 0.00 | 0.00 | 42 | 1019.8 | |
| 20260502042518 | 7 | 0.0 | 0.0 | 0.00 | 0.00 | 0.00 | 42 | 1019.7 | |
| 20260502041518 | 8 | 0.0 | 0.0 | 0.00 | 0.00 | 0.00 | 39 | 1019.6 | |
| 20260502040539 | 8 | 0.0 | 0.0 | 0.00 | 0.00 | 0.00 | 37 | 1019.5 | |
| 20260502035518 | 8 | 0.0 | 0.0 | 0.00 | 0.00 | 0.00 | 39 | 1019.4 | |
| 20260502034519 | 9 | 0.0 | 0.0 | 0.00 | 0.00 | 0.00 | 41 | 1019.4 | |
| 20260502033519 | 10 | 0.0 | 0.0 | 0.00 | 0.00 | 0.00 | 41 | 1019.3 | |
| 20260502032519 | 11 | 0.0 | 0.0 | 0.00 | 0.00 | 0.00 | 30 | 1018.9 | |
| 20260502031516 | 12 | 358 | 0.0 | 3.2 | 0.00 | 0.00 | 0.00 | 27 | 1018.7 |
| 20260502030516 | 12 | 0.0 | 0.0 | 0.00 | 0.00 | 0.00 | 26 | 1018.6 | |
| 20260502025516 | 12 | 7 | 0.0 | 1.6 | 0.00 | 0.00 | 0.00 | 26 | 1018.4 |
| 20260502024520 | 12 | 0.0 | 0.0 | 0.00 | 0.00 | 0.00 | 25 | 1018.2 | |
| 20260502023520 | 13 | 0.0 | 0.0 | 0.00 | 0.00 | 0.00 | 23 | 1018.1 | |
| 20260502022517 | 14 | 0.0 | 0.0 | 0.00 | 0.00 | 0.00 | 22 | 1018.0 | |
| 20260502021517 | 15 | 29 | 1.6 | 6.4 | 0.00 | 0.00 | 0.00 | 21 | 1017.9 |
| 20260502020518 | 15 | 25 | 3.2 | 4.8 | 0.00 | 0.00 | 0.00 | 20 | 1017.8 |
| 20260502015518 | 16 | 24 | 3.2 | 6.4 | 0.00 | 0.00 | 0.00 | 20 | 1017.7 |
| 20260502014518 | 16 | 29 | 3.2 | 8.0 | 0.00 | 0.00 | 0.00 | 19 | 1017.6 |
| 20260502013518 | 16 | 24 | 3.2 | 8.0 | 0.00 | 0.00 | 0.00 | 18 | 1017.6 |
| 20260502012539 | 17 | 22 | 1.6 | 6.4 | 0.00 | 0.00 | 0.00 | 18 | 1017.5 |
| 20260502011518 | 17 | 34 | 3.2 | 9.7 | 0.00 | 0.00 | 0.00 | 18 | 1017.5 |
| 20260502010519 | 17 | 22 | 1.6 | 8.0 | 0.00 | 0.00 | 0.00 | 17 | 1017.4 |
| 20260502005516 | 17 | 344 | 3.2 | 8.0 | 0.00 | 0.00 | 0.00 | 17 | 1017.4 |
| 20260502004519 | 17 | 340 | 1.6 | 8.0 | 0.00 | 0.00 | 0.00 | 17 | 1017.4 |
| 20260502003516 | 17 | 19 | 4.8 | 11.3 | 0.00 | 0.00 | 0.00 | 17 | 1017.4 |
| 20260502002519 | 17 | 8 | 1.6 | 9.7 | 0.00 | 0.00 | 0.00 | 17 | 1017.4 |
| 20260502001520 | 17 | 317 | 3.2 | 11.3 | 0.00 | 0.00 | 0.00 | 17 | 1017.4 |
| 20260502000517 | 18 | 312 | 3.2 | 9.7 | 0.00 | 0.00 | 0.00 | 17 | 1017.4 |
| 20260501235558 | 18 | 30 | 4.8 | 14.5 | 0.00 | 0.00 | 0.00 | 17 | 1017.4 |
| 20260501234517 | 18 | 45 | 3.2 | 11.3 | 0.00 | 0.00 | 0.00 | 18 | 1017.4 |
| 20260501233518 | 18 | 88 | 3.2 | 11.3 | 0.00 | 0.00 | 0.00 | 18 | 1017.4 |
| 20260501232518 | 18 | 2 | 3.2 | 12.9 | 0.00 | 0.00 | 0.00 | 18 | 1017.5 |
| 20260501231518 | 18 | 307 | 3.2 | 9.7 | 0.00 | 0.00 | 0.00 | 18 | 1017.5 |
| 20260501230518 | 18 | 302 | 4.8 | 11.3 | 0.00 | 0.00 | 0.00 | 18 | 1017.5 |
| 20260501225519 | 18 | 324 | 6.4 | 12.9 | 0.00 | 0.00 | 0.00 | 18 | 1017.5 |
| 20260501224516 | 18 | 45 | 4.8 | 14.5 | 0.00 | 0.00 | 0.00 | 19 | 1017.5 |
| 20260501223517 | 18 | 348 | 3.2 | 8.0 | 0.00 | 0.00 | 0.00 | 18 | 1017.5 |
| 20260501222519 | 18 | 341 | 6.4 | 17.7 | 0.00 | 0.00 | 0.00 | 18 | 1017.6 |
| 20260501221520 | 18 | 321 | 3.2 | 12.9 | 0.00 | 0.00 | 0.00 | 18 | 1017.7 |
| 20260501220537 | 18 | 20 | 3.2 | 11.3 | 0.00 | 0.00 | 0.00 | 19 | 1017.8 |
| 20260501215538 | 18 | 1 | 6.4 | 12.9 | 0.00 | 0.00 | 0.00 | 18 | 1017.9 |
| 20260501214517 | 18 | 8 | 4.8 | 14.5 | 0.00 | 0.00 | 0.00 | 18 | 1018.0 |
| 20260501213537 | 18 | 24 | 4.8 | 12.9 | 0.00 | 0.00 | 0.00 | 19 | 1018.1 |
| 20260501212517 | 18 | 45 | 4.8 | 16.1 | 0.00 | 0.00 | 0.00 | 20 | 1018.2 |
| 20260501211518 | 17 | 34 | 4.8 | 12.9 | 0.00 | 0.00 | 0.00 | 21 | 1018.4 |
| 20260501210519 | 17 | 356 | 6.4 | 19.3 | 0.00 | 0.00 | 0.00 | 21 | 1018.6 |
| 20260501205518 | 17 | 39 | 4.8 | 12.9 | 0.00 | 0.00 | 0.00 | 21 | 1018.6 |
| 20260501204518 | 17 | 34 | 6.4 | 14.5 | 0.00 | 0.00 | 0.00 | 22 | 1018.8 |
| 20260501203518 | 16 | 318 | 4.8 | 12.9 | 0.00 | 0.00 | 0.00 | 22 | 1018.8 |
| 20260501202538 | 17 | 351 | 6.4 | 17.7 | 0.00 | 0.00 | 0.00 | 21 | 1018.8 |
| 20260501201518 | 17 | 29 | 4.8 | 14.5 | 0.00 | 0.00 | 0.00 | 21 | 1018.8 |
| 20260501200519 | 17 | 333 | 6.4 | 16.1 | 0.00 | 0.00 | 0.00 | 21 | 1018.8 |
| 20260501195519 | 16 | 312 | 4.8 | 14.5 | 0.00 | 0.00 | 0.00 | 22 | 1019.0 |
| 20260501194519 | 16 | 331 | 6.4 | 16.1 | 0.00 | 0.00 | 0.00 | 23 | 1019.1 |
| 20260501193519 | 16 | 335 | 6.4 | 12.9 | 0.00 | 0.00 | 0.00 | 22 | 1019.1 |
| 20260501192519 | 16 | 11 | 8.0 | 16.1 | 0.00 | 0.00 | 0.00 | 22 | 1019.2 |
| 20260501191531 | 15 | 294 | 1.6 | 8.0 | 0.00 | 0.00 | 0.00 | 23 | 1019.2 |
| 20260501190516 | 15 | 326 | 6.4 | 12.9 | 0.00 | 0.00 | 0.00 | 23 | 1019.2 |
| 20260501185517 | 15 | 316 | 6.4 | 14.5 | 0.00 | 0.00 | 0.00 | 24 | 1019.3 |
| 20260501184520 | 16 | 349 | 6.4 | 14.5 | 0.00 | 0.00 | 0.00 | 23 | 1019.3 |
| 20260501183520 | 16 | 51 | 3.2 | 11.3 | 0.00 | 0.00 | 0.00 | 24 | 1019.3 |
| 20260501182517 | 15 | 6 | 3.2 | 8.0 | 0.00 | 0.00 | 0.00 | 24 | 1019.5 |
| 20260501181054 | -17 | 14 | 6.4 | 9.7 | 0.00 | 0.00 | 0.00 | ||
| 20260501180018 | 15 | 116 | 6.4 | 12.9 | 0.00 | 0.00 | 0.00 | 27 | 1019.8 |
| 20260501175053 | -17 | 358 | 4.8 | 9.7 | 0.00 | 0.00 | 0.00 | ||
| 20260501174018 | 14 | 46 | 4.8 | 11.3 | 0.00 | 0.00 | 0.00 | 27 | 1019.9 |
| 20260501173018 | 15 | 358 | 4.8 | 12.9 | 0.00 | 0.00 | 0.00 | 26 | 1019.9 |
| 20260501172039 | -17 | 18 | 4.8 | 11.3 | 0.00 | 0.00 | 0.00 | ||
| 20260501171045 | 13 | 359 | 4.8 | 11.3 | 0.00 | 0.00 | 0.00 | 28 | 1020.0 |
| 20260501170019 | 13 | 145 | 1.6 | 6.4 | 0.00 | 0.00 | 0.00 | 28 | 1020.1 |
| 20260501165019 | -17 | 320 | 3.2 | 6.4 | 0.00 | 0.00 | 0.00 | ||
| 20260501164019 | 12 | 317 | 4.8 | 9.7 | 0.00 | 0.00 | 0.00 | 30 | 1020.1 |
| 20260501163039 | 12 | 311 | 3.2 | 8.0 | 0.00 | 0.00 | 0.00 | 31 | 1020.1 |
| 20260501162016 | 11 | 157 | 1.6 | 8.0 | 0.00 | 0.00 | 0.00 | 35 | 1020.3 |
| 20260501161017 | 11 | 263 | 3.2 | 11.3 | 0.00 | 0.00 | 0.00 | 36 | 1020.4 |
| 20260501160017 | 10 | 236 | 1.6 | 9.7 | 0.00 | 0.00 | 0.00 | 41 | 1020.7 |
| 20260501155020 | 9 | 222 | 3.2 | 12.9 | 0.00 | 0.00 | 0.00 | 42 | 1020.7 |
| 20260501154017 | 8 | 260 | 3.2 | 11.3 | 0.00 | 0.00 | 0.00 | 45 | 1020.8 |
| 20260501153017 | 8 | 205 | 3.2 | 12.9 | 0.00 | 0.00 | 0.00 | 47 | 1021.0 |
| 20260501152018 | 7 | 242 | 3.2 | 9.7 | 0.00 | 0.00 | 0.00 | 49 | 1021.1 |
| 20260501151018 | 6 | 238 | 4.8 | 11.3 | 0.00 | 0.00 | 0.00 | 51 | 1021.2 |
| 20260501150017 | 6 | 220 | 4.8 | 9.7 | 0.00 | 0.00 | 0.00 | 52 | 1021.2 |
| 20260501145038 | 5 | 206 | 4.8 | 11.3 | 0.00 | 0.00 | 0.00 | 53 | 1021.2 |
| 20260501144018 | 4 | 211 | 4.8 | 12.9 | 0.00 | 0.00 | 0.00 | 58 | 1021.4 |
| 20260501143018 | 3 | 221 | 3.2 | 9.7 | 0.00 | 0.00 | 0.00 | 67 | 1021.7 |
| 20260501142019 | 2 | 210 | 3.2 | 6.4 | 0.00 | 0.00 | 0.00 | 70 | 1021.8 |
| 20260501141018 | 2 | 207 | 1.6 | 6.4 | 0.00 | 0.00 | 0.00 | 73 | 1021.8 |
| 20260501140039 | 1 | 204 | 4.8 | 8.0 | 0.00 | 0.00 | 0.00 | 72 | 1021.8 |